sensor_id;sensor_type;location;lat;lon;timestamp;pressure;altitude;pressure_sealevel;temperature
14666;BMP280;7420;53.574;10.040;2022-07-19T00:01:37;101991.50;;;19.27
14666;BMP280;7420;53.574;10.040;2022-07-19T00:04:06;101995.63;;;19.18
14666;BMP280;7420;53.574;10.040;2022-07-19T00:06:31;101989.13;;;19.07
14666;BMP280;7420;53.574;10.040;2022-07-19T00:08:57;101986.31;;;19.02
14666;BMP280;7420;53.574;10.040;2022-07-19T00:11:22;101984.69;;;19.01
14666;BMP280;7420;53.574;10.040;2022-07-19T00:13:48;101998.50;;;18.93
14666;BMP280;7420;53.574;10.040;2022-07-19T00:16:13;101998.03;;;18.96
14666;BMP280;7420;53.574;10.040;2022-07-19T00:18:39;101996.03;;;19.03
14666;BMP280;7420;53.574;10.040;2022-07-19T00:21:05;101994.75;;;18.94
14666;BMP280;7420;53.574;10.040;2022-07-19T00:23:30;102000.69;;;18.73
14666;BMP280;7420;53.574;10.040;2022-07-19T00:25:55;102001.06;;;18.77
14666;BMP280;7420;53.574;10.040;2022-07-19T00:28:21;101997.41;;;18.83
14666;BMP280;7420;53.574;10.040;2022-07-19T00:30:46;101991.34;;;18.87
14666;BMP280;7420;53.574;10.040;2022-07-19T00:33:11;101997.06;;;18.79
14666;BMP280;7420;53.574;10.040;2022-07-19T00:35:37;102001.00;;;18.65
14666;BMP280;7420;53.574;10.040;2022-07-19T00:38:06;101992.69;;;18.55
14666;BMP280;7420;53.574;10.040;2022-07-19T00:40:32;101996.78;;;18.58
14666;BMP280;7420;53.574;10.040;2022-07-19T00:42:57;101997.47;;;18.53
14666;BMP280;7420;53.574;10.040;2022-07-19T00:45:23;101999.94;;;18.55
14666;BMP280;7420;53.574;10.040;2022-07-19T00:47:49;101998.75;;;18.51
14666;BMP280;7420;53.574;10.040;2022-07-19T00:50:14;101999.91;;;18.44
14666;BMP280;7420;53.574;10.040;2022-07-19T00:52:40;102005.59;;;18.36
14666;BMP280;7420;53.574;10.040;2022-07-19T00:55:08;102003.16;;;18.34
14666;BMP280;7420;53.574;10.040;2022-07-19T00:57:35;102004.41;;;18.32
14666;BMP280;7420;53.574;10.040;2022-07-19T01:00:05;101997.13;;;18.21
14666;BMP280;7420;53.574;10.040;2022-07-19T01:02:31;102001.22;;;18.23
14666;BMP280;7420;53.574;10.040;2022-07-19T01:04:57;102007.03;;;18.20
14666;BMP280;7420;53.574;10.040;2022-07-19T01:07:22;101998.63;;;18.17
14666;BMP280;7420;53.574;10.040;2022-07-19T01:09:48;101998.03;;;18.15
14666;BMP280;7420;53.574;10.040;2022-07-19T01:12:14;102004.97;;;18.04
14666;BMP280;7420;53.574;10.040;2022-07-19T01:14:40;102002.66;;;18.08
14666;BMP280;7420;53.574;10.040;2022-07-19T01:17:05;102011.50;;;17.97
14666;BMP280;7420;53.574;10.040;2022-07-19T01:19:31;102003.34;;;18.03
14666;BMP280;7420;53.574;10.040;2022-07-19T01:21:56;102001.63;;;17.91
14666;BMP280;7420;53.574;10.040;2022-07-19T01:24:21;102002.06;;;17.88
14666;BMP280;7420;53.574;10.040;2022-07-19T01:26:47;102003.25;;;17.92
14666;BMP280;7420;53.574;10.040;2022-07-19T01:29:16;102009.50;;;17.92
14666;BMP280;7420;53.574;10.040;2022-07-19T01:31:42;102011.50;;;17.97
14666;BMP280;7420;53.574;10.040;2022-07-19T01:34:07;102013.97;;;17.98
14666;BMP280;7420;53.574;10.040;2022-07-19T01:36:32;102011.56;;;17.90
14666;BMP280;7420;53.574;10.040;2022-07-19T01:38:58;102010.38;;;17.86
14666;BMP280;7420;53.574;10.040;2022-07-19T01:41:23;102013.56;;;17.95
14666;BMP280;7420;53.574;10.040;2022-07-19T01:43:48;102008.28;;;17.88
14666;BMP280;7420;53.574;10.040;2022-07-19T01:46:14;102006.50;;;17.82
14666;BMP280;7420;53.574;10.040;2022-07-19T01:48:39;102005.44;;;17.83
14666;BMP280;7420;53.574;10.040;2022-07-19T01:51:04;102001.81;;;17.78
14666;BMP280;7420;53.574;10.040;2022-07-19T01:53:30;101997.69;;;17.75
14666;BMP280;7420;53.574;10.040;2022-07-19T01:55:55;101992.91;;;17.59
14666;BMP280;7420;53.574;10.040;2022-07-19T01:58:21;101996.56;;;17.47
14666;BMP280;7420;53.574;10.040;2022-07-19T02:00:46;101995.16;;;17.44
14666;BMP280;7420;53.574;10.040;2022-07-19T02:03:11;101996.50;;;17.53
14666;BMP280;7420;53.574;10.040;2022-07-19T02:05:37;101996.06;;;17.56
14666;BMP280;7420;53.574;10.040;2022-07-19T02:08:02;102002.03;;;17.58
14666;BMP280;7420;53.574;10.040;2022-07-19T02:10:28;101995.91;;;17.51
14666;BMP280;7420;53.574;10.040;2022-07-19T02:12:54;102001.47;;;17.50
14666;BMP280;7420;53.574;10.040;2022-07-19T02:15:19;102000.06;;;17.47
14666;BMP280;7420;53.574;10.040;2022-07-19T02:17:44;102002.84;;;17.41
14666;BMP280;7420;53.574;10.040;2022-07-19T02:20:10;101996.72;;;17.34
14666;BMP280;7420;53.574;10.040;2022-07-19T02:22:35;102003.13;;;17.33
14666;BMP280;7420;53.574;10.040;2022-07-19T02:25:01;101998.97;;;17.30
14666;BMP280;7420;53.574;10.040;2022-07-19T02:27:26;101997.16;;;17.31
14666;BMP280;7420;53.574;10.040;2022-07-19T02:29:53;101993.00;;;17.28
14666;BMP280;7420;53.574;10.040;2022-07-19T02:32:19;101992.19;;;17.28
14666;BMP280;7420;53.574;10.040;2022-07-19T02:34:44;101989.63;;;17.15
14666;BMP280;7420;53.574;10.040;2022-07-19T02:37:09;101986.41;;;17.07
14666;BMP280;7420;53.574;10.040;2022-07-19T02:39:35;101984.38;;;17.02
14666;BMP280;7420;53.574;10.040;2022-07-19T02:42:00;101997.38;;;17.05
14666;BMP280;7420;53.574;10.040;2022-07-19T02:44:25;101999.16;;;17.11
14666;BMP280;7420;53.574;10.040;2022-07-19T02:46:51;101997.06;;;17.13
14666;BMP280;7420;53.574;10.040;2022-07-19T02:49:16;101997.47;;;17.17
14666;BMP280;7420;53.574;10.040;2022-07-19T02:51:42;101998.13;;;17.12
14666;BMP280;7420;53.574;10.040;2022-07-19T02:54:07;101997.50;;;17.10
14666;BMP280;7420;53.574;10.040;2022-07-19T02:56:33;102005.44;;;17.05
14666;BMP280;7420;53.574;10.040;2022-07-19T02:58:58;102008.41;;;16.97
14666;BMP280;7420;53.574;10.040;2022-07-19T03:01:23;102007.63;;;16.90
14666;BMP280;7420;53.574;10.040;2022-07-19T03:03:49;102009.25;;;16.91
14666;BMP280;7420;53.574;10.040;2022-07-19T03:06:17;102017.09;;;16.93
14666;BMP280;7420;53.574;10.040;2022-07-19T03:08:44;102017.06;;;16.99
14666;BMP280;7420;53.574;10.040;2022-07-19T03:11:10;102019.91;;;17.04
14666;BMP280;7420;53.574;10.040;2022-07-19T03:13:35;102014.22;;;17.12
14666;BMP280;7420;53.574;10.040;2022-07-19T03:16:01;102017.66;;;17.01
14666;BMP280;7420;53.574;10.040;2022-07-19T03:18:26;102016.28;;;16.92
14666;BMP280;7420;53.574;10.040;2022-07-19T03:20:51;102021.22;;;16.95
14666;BMP280;7420;53.574;10.040;2022-07-19T03:23:17;102026.63;;;16.89
14666;BMP280;7420;53.574;10.040;2022-07-19T03:25:42;102022.97;;;16.83
14666;BMP280;7420;53.574;10.040;2022-07-19T03:28:08;102017.59;;;16.83
14666;BMP280;7420;53.574;10.040;2022-07-19T03:30:33;102020.88;;;16.85
14666;BMP280;7420;53.574;10.040;2022-07-19T03:32:58;102025.03;;;16.81
14666;BMP280;7420;53.574;10.040;2022-07-19T03:35:24;102024.22;;;16.81
14666;BMP280;7420;53.574;10.040;2022-07-19T03:37:50;102023.72;;;16.90
14666;BMP280;7420;53.574;10.040;2022-07-19T03:40:15;102027.22;;;16.91
14666;BMP280;7420;53.574;10.040;2022-07-19T03:42:40;102028.31;;;16.83
14666;BMP280;7420;53.574;10.040;2022-07-19T03:45:06;102019.06;;;16.79
14666;BMP280;7420;53.574;10.040;2022-07-19T03:47:32;102023.81;;;16.77
14666;BMP280;7420;53.574;10.040;2022-07-19T03:49:57;102026.47;;;16.84
14666;BMP280;7420;53.574;10.040;2022-07-19T03:52:23;102018.19;;;16.85
14666;BMP280;7420;53.574;10.040;2022-07-19T03:54:49;102021.38;;;16.76
14666;BMP280;7420;53.574;10.040;2022-07-19T03:57:15;102022.41;;;16.75
14666;BMP280;7420;53.574;10.040;2022-07-19T03:59:40;102030.84;;;16.78
14666;BMP280;7420;53.574;10.040;2022-07-19T04:02:06;102034.97;;;16.81
14666;BMP280;7420;53.574;10.040;2022-07-19T04:04:31;102028.31;;;16.83
14666;BMP280;7420;53.574;10.040;2022-07-19T04:06:57;102031.25;;;16.82
14666;BMP280;7420;53.574;10.040;2022-07-19T04:09:22;102038.41;;;16.88
14666;BMP280;7420;53.574;10.040;2022-07-19T04:11:48;102040.63;;;16.97
14666;BMP280;7420;53.574;10.040;2022-07-19T04:14:13;102036.91;;;16.98
14666;BMP280;7420;53.574;10.040;2022-07-19T04:16:39;102033.91;;;17.06
14666;BMP280;7420;53.574;10.040;2022-07-19T04:19:04;102040.50;;;17.10
14666;BMP280;7420;53.574;10.040;2022-07-19T04:21:29;102035.97;;;17.11
14666;BMP280;7420;53.574;10.040;2022-07-19T04:23:55;102035.09;;;17.17
14666;BMP280;7420;53.574;10.040;2022-07-19T04:26:20;102037.03;;;17.27
14666;BMP280;7420;53.574;10.040;2022-07-19T04:28:45;102036.19;;;17.33
14666;BMP280;7420;53.574;10.040;2022-07-19T04:31:11;102030.00;;;17.33
14666;BMP280;7420;53.574;10.040;2022-07-19T04:33:36;102043.16;;;17.41
14666;BMP280;7420;53.574;10.040;2022-07-19T04:36:02;102037.34;;;17.44
14666;BMP280;7420;53.574;10.040;2022-07-19T04:38:27;102037.91;;;17.46
14666;BMP280;7420;53.574;10.040;2022-07-19T04:40:52;102037.03;;;17.52
14666;BMP280;7420;53.574;10.040;2022-07-19T04:43:18;102039.84;;;17.63
14666;BMP280;7420;53.574;10.040;2022-07-19T04:45:43;102036.63;;;17.73
14666;BMP280;7420;53.574;10.040;2022-07-19T04:48:11;102038.25;;;17.74
14666;BMP280;7420;53.574;10.040;2022-07-19T04:50:38;102042.16;;;17.78
14666;BMP280;7420;53.574;10.040;2022-07-19T04:53:04;102042.22;;;17.89
14666;BMP280;7420;53.574;10.040;2022-07-19T04:55:29;102041.75;;;17.92
14666;BMP280;7420;53.574;10.040;2022-07-19T04:57:54;102040.03;;;17.98
14666;BMP280;7420;53.574;10.040;2022-07-19T05:00:20;102046.25;;;17.98
14666;BMP280;7420;53.574;10.040;2022-07-19T05:02:45;102046.44;;;18.15
14666;BMP280;7420;53.574;10.040;2022-07-19T05:05:10;102047.03;;;18.35
14666;BMP280;7420;53.574;10.040;2022-07-19T05:07:36;102042.63;;;18.40
14666;BMP280;7420;53.574;10.040;2022-07-19T05:10:03;102041.47;;;18.48
14666;BMP280;7420;53.574;10.040;2022-07-19T05:12:28;102047.16;;;18.57
14666;BMP280;7420;53.574;10.040;2022-07-19T05:14:54;102044.00;;;18.60
14666;BMP280;7420;53.574;10.040;2022-07-19T05:17:19;102037.06;;;18.64
14666;BMP280;7420;53.574;10.040;2022-07-19T05:19:44;102042.00;;;18.67
14666;BMP280;7420;53.574;10.040;2022-07-19T05:22:10;102045.41;;;18.74
14666;BMP280;7420;53.574;10.040;2022-07-19T05:24:35;102031.50;;;18.77
14666;BMP280;7420;53.574;10.040;2022-07-19T05:27:00;102029.97;;;18.81
14666;BMP280;7420;53.574;10.040;2022-07-19T05:29:26;102034.19;;;18.89
14666;BMP280;7420;53.574;10.040;2022-07-19T05:31:51;102031.78;;;18.99
14666;BMP280;7420;53.574;10.040;2022-07-19T05:34:16;102034.00;;;19.02
14666;BMP280;7420;53.574;10.040;2022-07-19T05:36:42;102030.13;;;19.09
14666;BMP280;7420;53.574;10.040;2022-07-19T05:39:07;102036.38;;;19.21
14666;BMP280;7420;53.574;10.040;2022-07-19T05:41:33;102031.47;;;19.30
14666;BMP280;7420;53.574;10.040;2022-07-19T05:43:58;102027.16;;;19.40
14666;BMP280;7420;53.574;10.040;2022-07-19T05:46:24;102017.88;;;19.48
14666;BMP280;7420;53.574;10.040;2022-07-19T05:48:49;102028.06;;;19.57
14666;BMP280;7420;53.574;10.040;2022-07-19T05:51:15;102021.25;;;19.66
14666;BMP280;7420;53.574;10.040;2022-07-19T05:53:40;102024.75;;;19.78
14666;BMP280;7420;53.574;10.040;2022-07-19T05:56:06;102027.06;;;19.86
14666;BMP280;7420;53.574;10.040;2022-07-19T05:58:32;102023.66;;;19.90
14666;BMP280;7420;53.574;10.040;2022-07-19T06:00:57;102023.66;;;20.02
14666;BMP280;7420;53.574;10.040;2022-07-19T06:03:42;102018.84;;;20.04
14666;BMP280;7420;53.574;10.040;2022-07-19T06:06:07;102029.69;;;20.20
14666;BMP280;7420;53.574;10.040;2022-07-19T06:08:33;102025.66;;;20.34
14666;BMP280;7420;53.574;10.040;2022-07-19T06:10:58;102019.94;;;20.47
14666;BMP280;7420;53.574;10.040;2022-07-19T06:13:23;102021.94;;;20.52
14666;BMP280;7420;53.574;10.040;2022-07-19T06:15:49;102030.13;;;20.57
14666;BMP280;7420;53.574;10.040;2022-07-19T06:18:15;102017.38;;;20.69
14666;BMP280;7420;53.574;10.040;2022-07-19T06:20:41;102028.84;;;20.76
14666;BMP280;7420;53.574;10.040;2022-07-19T06:23:06;102033.00;;;20.94
14666;BMP280;7420;53.574;10.040;2022-07-19T06:25:32;102033.22;;;21.09
14666;BMP280;7420;53.574;10.040;2022-07-19T06:27:57;102028.38;;;21.28
14666;BMP280;7420;53.574;10.040;2022-07-19T06:30:23;102027.38;;;21.34
14666;BMP280;7420;53.574;10.040;2022-07-19T06:32:49;102022.47;;;21.31
14666;BMP280;7420;53.574;10.040;2022-07-19T06:35:14;102035.81;;;21.37
14666;BMP280;7420;53.574;10.040;2022-07-19T06:37:39;102034.59;;;21.61
14666;BMP280;7420;53.574;10.040;2022-07-19T06:40:05;102038.00;;;21.73
14666;BMP280;7420;53.574;10.040;2022-07-19T06:42:31;102042.91;;;21.76
14666;BMP280;7420;53.574;10.040;2022-07-19T06:44:56;102037.63;;;21.86
14666;BMP280;7420;53.574;10.040;2022-07-19T06:47:24;102035.81;;;21.92
14666;BMP280;7420;53.574;10.040;2022-07-19T06:49:49;102036.38;;;22.15
14666;BMP280;7420;53.574;10.040;2022-07-19T06:52:14;102032.31;;;22.17
14666;BMP280;7420;53.574;10.040;2022-07-19T06:54:40;102032.13;;;22.24
14666;BMP280;7420;53.574;10.040;2022-07-19T06:57:05;102028.16;;;22.31
14666;BMP280;7420;53.574;10.040;2022-07-19T06:59:33;102035.16;;;22.49
14666;BMP280;7420;53.574;10.040;2022-07-19T07:01:58;102041.47;;;22.59
14666;BMP280;7420;53.574;10.040;2022-07-19T07:04:23;102040.28;;;22.77
14666;BMP280;7420;53.574;10.040;2022-07-19T07:06:49;102036.59;;;22.88
14666;BMP280;7420;53.574;10.040;2022-07-19T07:09:14;102025.81;;;22.98
14666;BMP280;7420;53.574;10.040;2022-07-19T07:11:39;102044.59;;;23.04
14666;BMP280;7420;53.574;10.040;2022-07-19T07:14:04;102038.19;;;23.15
14666;BMP280;7420;53.574;10.040;2022-07-19T07:16:30;102033.72;;;22.99
14666;BMP280;7420;53.574;10.040;2022-07-19T07:18:55;102038.75;;;23.17
14666;BMP280;7420;53.574;10.040;2022-07-19T07:21:20;102036.72;;;23.34
14666;BMP280;7420;53.574;10.040;2022-07-19T07:23:46;102040.28;;;23.39
14666;BMP280;7420;53.574;10.040;2022-07-19T07:26:12;102041.44;;;23.53
14666;BMP280;7420;53.574;10.040;2022-07-19T07:28:37;102036.38;;;23.67
14666;BMP280;7420;53.574;10.040;2022-07-19T07:31:02;102039.47;;;23.85
14666;BMP280;7420;53.574;10.040;2022-07-19T07:33:28;102043.59;;;23.88
14666;BMP280;7420;53.574;10.040;2022-07-19T07:35:53;102043.75;;;23.76
14666;BMP280;7420;53.574;10.040;2022-07-19T07:38:18;102038.94;;;23.83
14666;BMP280;7420;53.574;10.040;2022-07-19T07:40:43;102039.00;;;23.98
14666;BMP280;7420;53.574;10.040;2022-07-19T07:43:09;102036.88;;;24.10
14666;BMP280;7420;53.574;10.040;2022-07-19T07:45:34;102039.84;;;24.04
14666;BMP280;7420;53.574;10.040;2022-07-19T07:47:59;102035.84;;;24.26
14666;BMP280;7420;53.574;10.040;2022-07-19T07:50:25;102034.47;;;24.34
14666;BMP280;7420;53.574;10.040;2022-07-19T07:52:51;102030.94;;;24.28
14666;BMP280;7420;53.574;10.040;2022-07-19T07:55:16;102027.16;;;24.34
14666;BMP280;7420;53.574;10.040;2022-07-19T07:57:42;102028.88;;;24.60
14666;BMP280;7420;53.574;10.040;2022-07-19T08:00:08;102025.34;;;24.54
14666;BMP280;7420;53.574;10.040;2022-07-19T08:02:43;102020.19;;;24.73
14666;BMP280;7420;53.574;10.040;2022-07-19T08:05:09;102021.84;;;24.84
14666;BMP280;7420;53.574;10.040;2022-07-19T08:07:36;102018.00;;;25.05
14666;BMP280;7420;53.574;10.040;2022-07-19T08:10:03;102014.75;;;25.03
14666;BMP280;7420;53.574;10.040;2022-07-19T08:12:29;102012.56;;;25.00
14666;BMP280;7420;53.574;10.040;2022-07-19T08:14:55;102016.66;;;25.22
14666;BMP280;7420;53.574;10.040;2022-07-19T08:17:20;102003.03;;;25.32
14666;BMP280;7420;53.574;10.040;2022-07-19T08:19:46;102010.38;;;25.42
14666;BMP280;7420;53.574;10.040;2022-07-19T08:22:15;102004.91;;;25.42
14666;BMP280;7420;53.574;10.040;2022-07-19T08:24:40;102000.03;;;25.44
14666;BMP280;7420;53.574;10.040;2022-07-19T08:27:06;101998.03;;;25.69
14666;BMP280;7420;53.574;10.040;2022-07-19T08:29:31;101987.94;;;25.69
14666;BMP280;7420;53.574;10.040;2022-07-19T08:31:56;101993.34;;;25.79
14666;BMP280;7420;53.574;10.040;2022-07-19T08:34:22;101977.88;;;25.80
14666;BMP280;7420;53.574;10.040;2022-07-19T08:36:47;101980.81;;;25.93
14666;BMP280;7420;53.574;10.040;2022-07-19T08:39:12;101977.00;;;25.89
14666;BMP280;7420;53.574;10.040;2022-07-19T08:41:38;101975.91;;;25.95
14666;BMP280;7420;53.574;10.040;2022-07-19T08:44:04;101976.97;;;25.99
14666;BMP280;7420;53.574;10.040;2022-07-19T08:46:29;101974.25;;;25.94
14666;BMP280;7420;53.574;10.040;2022-07-19T08:48:55;101980.66;;;26.18
14666;BMP280;7420;53.574;10.040;2022-07-19T08:51:21;101975.66;;;26.35
14666;BMP280;7420;53.574;10.040;2022-07-19T08:53:49;101979.44;;;26.44
14666;BMP280;7420;53.574;10.040;2022-07-19T08:56:14;101974.69;;;26.60
14666;BMP280;7420;53.574;10.040;2022-07-19T08:58:58;101958.53;;;26.68
14666;BMP280;7420;53.574;10.040;2022-07-19T09:01:24;101965.59;;;26.69
14666;BMP280;7420;53.574;10.040;2022-07-19T09:04:07;101964.16;;;26.77
14666;BMP280;7420;53.574;10.040;2022-07-19T09:06:37;101961.88;;;26.89
14666;BMP280;7420;53.574;10.040;2022-07-19T09:09:03;101959.44;;;26.87
14666;BMP280;7420;53.574;10.040;2022-07-19T09:11:39;101957.00;;;26.86
14666;BMP280;7420;53.574;10.040;2022-07-19T09:14:17;101955.34;;;27.18
14666;BMP280;7420;53.574;10.040;2022-07-19T09:17:04;101960.28;;;27.16
14666;BMP280;7420;53.574;10.040;2022-07-19T09:19:36;101961.78;;;27.27
14666;BMP280;7420;53.574;10.040;2022-07-19T09:22:07;101965.16;;;27.19
14666;BMP280;7420;53.574;10.040;2022-07-19T09:24:35;101967.47;;;27.07
14666;BMP280;7420;53.574;10.040;2022-07-19T09:27:09;101958.91;;;27.42
14666;BMP280;7420;53.574;10.040;2022-07-19T09:29:35;101968.09;;;27.51
14666;BMP280;7420;53.574;10.040;2022-07-19T09:32:05;101958.66;;;27.62
14666;BMP280;7420;53.574;10.040;2022-07-19T09:34:55;101956.78;;;27.57
14666;BMP280;7420;53.574;10.040;2022-07-19T09:37:24;101951.81;;;27.64
14666;BMP280;7420;53.574;10.040;2022-07-19T09:39:54;101958.09;;;27.65
14666;BMP280;7420;53.574;10.040;2022-07-19T09:42:43;101956.59;;;27.54
14666;BMP280;7420;53.574;10.040;2022-07-19T09:45:16;101949.84;;;27.70
14666;BMP280;7420;53.574;10.040;2022-07-19T09:47:47;101951.84;;;27.83
14666;BMP280;7420;53.574;10.040;2022-07-19T09:50:16;101950.38;;;27.90
14666;BMP280;7420;53.574;10.040;2022-07-19T09:52:44;101952.78;;;27.97
14666;BMP280;7420;53.574;10.040;2022-07-19T09:55:10;101950.63;;;27.94
14666;BMP280;7420;53.574;10.040;2022-07-19T09:57:43;101947.31;;;27.97
14666;BMP280;7420;53.574;10.040;2022-07-19T10:00:14;101949.28;;;28.10
14666;BMP280;7420;53.574;10.040;2022-07-19T10:02:42;101953.91;;;28.32
14666;BMP280;7420;53.574;10.040;2022-07-19T10:05:12;101952.19;;;28.18
14666;BMP280;7420;53.574;10.040;2022-07-19T10:07:39;101953.81;;;28.19
14666;BMP280;7420;53.574;10.040;2022-07-19T10:10:07;101946.94;;;28.21
14666;BMP280;7420;53.574;10.040;2022-07-19T10:12:33;101949.53;;;28.31
14666;BMP280;7420;53.574;10.040;2022-07-19T10:14:59;101940.50;;;28.31
14666;BMP280;7420;53.574;10.040;2022-07-19T10:17:30;101943.56;;;28.29
14666;BMP280;7420;53.574;10.040;2022-07-19T10:19:58;101949.53;;;28.31
14666;BMP280;7420;53.574;10.040;2022-07-19T10:22:24;101941.41;;;28.26
14666;BMP280;7420;53.574;10.040;2022-07-19T10:29:52;101927.31;;;28.83
14666;BMP280;7420;53.574;10.040;2022-07-19T10:32:17;101929.75;;;28.71
14666;BMP280;7420;53.574;10.040;2022-07-19T10:34:44;101924.00;;;28.86
14666;BMP280;7420;53.574;10.040;2022-07-19T10:37:11;101920.31;;;28.96
14666;BMP280;7420;53.574;10.040;2022-07-19T10:42:10;101910.28;;;29.18
14666;BMP280;7420;53.574;10.040;2022-07-19T10:50:23;101898.31;;;29.41
14666;BMP280;7420;53.574;10.040;2022-07-19T10:52:51;101900.66;;;29.61
14666;BMP280;7420;53.574;10.040;2022-07-19T11:00:32;101890.81;;;29.60
14666;BMP280;7420;53.574;10.040;2022-07-19T11:05:53;101891.25;;;29.89
14666;BMP280;7420;53.574;10.040;2022-07-19T11:08:36;101888.16;;;29.68
14666;BMP280;7420;53.574;10.040;2022-07-19T11:11:19;101888.63;;;29.84
14666;BMP280;7420;53.574;10.040;2022-07-19T11:13:50;101891.56;;;30.23
14666;BMP280;7420;53.574;10.040;2022-07-19T11:16:16;101893.03;;;30.51
14666;BMP280;7420;53.574;10.040;2022-07-19T11:18:42;101888.13;;;30.39
14666;BMP280;7420;53.574;10.040;2022-07-19T11:21:10;101875.88;;;30.37
14666;BMP280;7420;53.574;10.040;2022-07-19T11:23:38;101885.38;;;30.39
14666;BMP280;7420;53.574;10.040;2022-07-19T11:26:09;101878.09;;;30.35
14666;BMP280;7420;53.574;10.040;2022-07-19T11:28:36;101879.09;;;30.39
14666;BMP280;7420;53.574;10.040;2022-07-19T11:31:21;101882.59;;;30.53
14666;BMP280;7420;53.574;10.040;2022-07-19T11:33:51;101882.75;;;30.34
14666;BMP280;7420;53.574;10.040;2022-07-19T11:36:19;101878.97;;;30.65
14666;BMP280;7420;53.574;10.040;2022-07-19T11:38:47;101879.00;;;31.04
14666;BMP280;7420;53.574;10.040;2022-07-19T11:43:56;101870.16;;;31.07
14666;BMP280;7420;53.574;10.040;2022-07-19T11:46:24;101881.59;;;31.48
14666;BMP280;7420;53.574;10.040;2022-07-19T11:48:55;101875.38;;;31.17
14666;BMP280;7420;53.574;10.040;2022-07-19T11:51:21;101866.38;;;30.95
14666;BMP280;7420;53.574;10.040;2022-07-19T11:53:49;101874.13;;;31.40
14666;BMP280;7420;53.574;10.040;2022-07-19T11:56:24;101864.31;;;31.56
14666;BMP280;7420;53.574;10.040;2022-07-19T11:58:51;101866.19;;;31.30
14666;BMP280;7420;53.574;10.040;2022-07-19T12:01:25;101870.72;;;30.96
14666;BMP280;7420;53.574;10.040;2022-07-19T12:03:57;101863.34;;;31.52
14666;BMP280;7420;53.574;10.040;2022-07-19T12:06:45;101864.75;;;31.41
14666;BMP280;7420;53.574;10.040;2022-07-19T12:09:16;101857.66;;;31.49
14666;BMP280;7420;53.574;10.040;2022-07-19T12:11:45;101856.88;;;31.57
14666;BMP280;7420;53.574;10.040;2022-07-19T12:14:28;101865.31;;;32.11
14666;BMP280;7420;53.574;10.040;2022-07-19T12:19:36;101852.41;;;31.86
14666;BMP280;7420;53.574;10.040;2022-07-19T12:22:02;101859.69;;;32.16
14666;BMP280;7420;53.574;10.040;2022-07-19T12:24:29;101853.13;;;32.63
14666;BMP280;7420;53.574;10.040;2022-07-19T12:26:58;101847.47;;;32.51
14666;BMP280;7420;53.574;10.040;2022-07-19T12:32:35;101851.00;;;32.68
14666;BMP280;7420;53.574;10.040;2022-07-19T12:35:13;101836.44;;;33.34
14666;BMP280;7420;53.574;10.040;2022-07-19T12:37:43;101836.06;;;33.44
14666;BMP280;7420;53.574;10.040;2022-07-19T12:40:18;101840.31;;;33.62
14666;BMP280;7420;53.574;10.040;2022-07-19T12:42:50;101832.75;;;33.79
14666;BMP280;7420;53.574;10.040;2022-07-19T12:45:35;101835.72;;;33.74
14666;BMP280;7420;53.574;10.040;2022-07-19T12:48:02;101837.31;;;33.96
14666;BMP280;7420;53.574;10.040;2022-07-19T12:50:31;101836.34;;;34.12
14666;BMP280;7420;53.574;10.040;2022-07-19T12:52:58;101847.50;;;34.48
14666;BMP280;7420;53.574;10.040;2022-07-19T12:55:25;101837.13;;;34.33
14666;BMP280;7420;53.574;10.040;2022-07-19T12:57:52;101833.56;;;34.65
14666;BMP280;7420;53.574;10.040;2022-07-19T13:00:19;101828.72;;;34.62
14666;BMP280;7420;53.574;10.040;2022-07-19T13:02:46;101826.59;;;34.47
14666;BMP280;7420;53.574;10.040;2022-07-19T13:05:12;101826.66;;;34.71
14666;BMP280;7420;53.574;10.040;2022-07-19T13:07:37;101825.06;;;34.70
14666;BMP280;7420;53.574;10.040;2022-07-19T13:10:03;101819.13;;;34.59
14666;BMP280;7420;53.574;10.040;2022-07-19T13:12:30;101817.47;;;35.27
14666;BMP280;7420;53.574;10.040;2022-07-19T13:14:56;101822.31;;;35.18
14666;BMP280;7420;53.574;10.040;2022-07-19T13:17:21;101823.38;;;35.53
14666;BMP280;7420;53.574;10.040;2022-07-19T13:19:47;101824.91;;;35.89
14666;BMP280;7420;53.574;10.040;2022-07-19T13:22:12;101812.97;;;36.13
14666;BMP280;7420;53.574;10.040;2022-07-19T13:24:38;101812.91;;;36.25
14666;BMP280;7420;53.574;10.040;2022-07-19T13:27:03;101809.09;;;35.74
14666;BMP280;7420;53.574;10.040;2022-07-19T13:29:29;101810.44;;;35.80
14666;BMP280;7420;53.574;10.040;2022-07-19T13:31:54;101805.38;;;35.82
14666;BMP280;7420;53.574;10.040;2022-07-19T13:34:21;101800.66;;;35.98
14666;BMP280;7420;53.574;10.040;2022-07-19T13:36:48;101793.28;;;36.45
14666;BMP280;7420;53.574;10.040;2022-07-19T13:39:14;101799.91;;;36.87
14666;BMP280;7420;53.574;10.040;2022-07-19T13:41:41;101791.53;;;36.99
14666;BMP280;7420;53.574;10.040;2022-07-19T13:44:07;101788.88;;;37.56
14666;BMP280;7420;53.574;10.040;2022-07-19T13:46:32;101785.38;;;37.40
14666;BMP280;7420;53.574;10.040;2022-07-19T13:48:58;101789.63;;;36.72
14666;BMP280;7420;53.574;10.040;2022-07-19T13:51:23;101773.50;;;37.24
14666;BMP280;7420;53.574;10.040;2022-07-19T13:53:49;101776.91;;;37.52
14666;BMP280;7420;53.574;10.040;2022-07-19T13:56:15;101782.81;;;37.16
14666;BMP280;7420;53.574;10.040;2022-07-19T13:58:40;101772.78;;;37.27
14666;BMP280;7420;53.574;10.040;2022-07-19T14:01:06;101773.84;;;37.57
14666;BMP280;7420;53.574;10.040;2022-07-19T14:03:31;101776.06;;;38.49
14666;BMP280;7420;53.574;10.040;2022-07-19T14:05:57;101777.94;;;38.23
14666;BMP280;7420;53.574;10.040;2022-07-19T14:08:22;101772.91;;;38.73
14666;BMP280;7420;53.574;10.040;2022-07-19T14:10:48;101769.66;;;38.45
14666;BMP280;7420;53.574;10.040;2022-07-19T14:13:13;101761.50;;;38.33
14666;BMP280;7420;53.574;10.040;2022-07-19T14:15:39;101763.78;;;38.73
14666;BMP280;7420;53.574;10.040;2022-07-19T14:18:04;101752.31;;;39.26
14666;BMP280;7420;53.574;10.040;2022-07-19T14:20:30;101760.84;;;39.40
14666;BMP280;7420;53.574;10.040;2022-07-19T14:22:55;101757.84;;;39.26
14666;BMP280;7420;53.574;10.040;2022-07-19T14:25:21;101743.31;;;39.10